Time;durP1;ratioP1;P1;durP2;ratioP2;P2;SDS_P1;SDS_P2;PMS_P1;PMS_P2;Temp;Humidity;BMP_temperature;BMP_pressure;BME280_temperature;BME280_humidity;BME280_pressure;Samples;Min_cycle;Max_cycle;Signal;HPM_P1;HPM_P2
2023/08/27 00:01:48;;;;;;;;;;;14.70;69.00;;;;;;4116071;28;20363;-84
2023/08/27 00:03:48;;;;;;;;;;;14.70;69.30;;;;;;4114230;28;20065;-84
2023/08/27 00:05:54;;;;;;;;;;;14.60;69.30;;;;;;4130612;28;19917;-84
2023/08/27 00:08:15;;;;;;;;;;;14.60;69.20;;;;;;4110210;28;19922;-83
2023/08/27 00:10:35;;;;;;;;;;;14.50;69.40;;;;;;4114285;28;19918;-85
2023/08/27 00:12:56;;;;;;;;;;;14.60;69.30;;;;;;4108872;28;19918;-85
2023/08/27 00:14:58;;;;;;;;;;;14.60;69.40;;;;;;4113093;28;19946;-84
2023/08/27 00:17:19;;;;;;;;;;;14.60;70.30;;;;;;4117922;28;19960;-85
2023/08/27 00:19:40;;;;;;;;;;;14.60;70.10;;;;;;4116847;28;19976;-85
2023/08/27 00:22:00;;;;;;;;;;;14.50;70.00;;;;;;4117908;28;19961;-85
2023/08/27 00:24:21;;;;;;;;;;;14.60;69.70;;;;;;4117323;28;20262;-87
2023/08/27 00:26:41;;;;;;;;;;;14.50;69.80;;;;;;4120466;28;19918;-83
2023/08/27 00:29:03;;;;;;;;;;;14.60;70.00;;;;;;4118243;28;19918;-84
2023/08/27 00:31:23;;;;;;;;;;;14.50;69.80;;;;;;4120437;28;19921;-84
2023/08/27 00:33:44;;;;;;;;;;;14.60;69.90;;;;;;4119085;28;19921;-84
2023/08/27 00:36:04;;;;;;;;;;;14.50;69.80;;;;;;4122613;28;19921;-85
2023/08/27 00:38:25;;;;;;;;;;;14.50;69.80;;;;;;4122681;28;20016;-84
2023/08/27 00:40:45;;;;;;;;;;;14.60;69.70;;;;;;4116649;28;20213;-85
2023/08/27 00:43:06;;;;;;;;;;;14.60;69.70;;;;;;4119151;28;20009;-85
2023/08/27 00:45:06;;;;;;;;;;;14.50;71.20;;;;;;4119087;28;20318;-85
2023/08/27 00:47:08;;;;;;;;;;;14.40;70.50;;;;;;4123742;28;19948;-85
2023/08/27 00:49:10;;;;;;;;;;;14.40;70.50;;;;;;4117800;28;19980;-84
2023/08/27 00:51:12;;;;;;;;;;;14.50;70.90;;;;;;4134773;28;19918;-84
2023/08/27 00:53:12;;;;;;;;;;;14.40;70.70;;;;;;4120441;28;20077;-84
2023/08/27 00:55:14;;;;;;;;;;;14.40;70.90;;;;;;4117476;28;19914;-84
2023/08/27 00:57:15;;;;;;;;;;;14.30;70.50;;;;;;4123028;28;19983;-85
2023/08/27 00:59:15;;;;;;;;;;;14.30;70.40;;;;;;4122272;28;20730;-84
2023/08/27 01:01:16;;;;;;;;;;;14.30;70.40;;;;;;4135644;28;20056;-84
2023/08/27 01:03:17;;;;;;;;;;;14.40;70.30;;;;;;4126764;28;20264;-84
2023/08/27 01:05:20;;;;;;;;;;;14.30;70.60;;;;;;4123367;28;20422;-85
2023/08/27 01:07:42;;;;;;;;;;;14.30;70.60;;;;;;4139035;28;19930;-84
2023/08/27 01:09:56;;;;;;;;;;;14.20;70.40;;;;;;4123187;28;19918;-85
2023/08/27 01:12:13;;;;;;;;;;;14.20;70.50;;;;;;4123583;28;19929;-85
2023/08/27 01:14:33;;;;;;;;;;;14.20;70.50;;;;;;4121135;28;19918;-85
2023/08/27 01:16:56;;;;;;;;;;;14.20;70.40;;;;;;4125254;28;19922;-85
2023/08/27 01:19:17;;;;;;;;;;;14.20;70.50;;;;;;4144124;28;19939;-84
2023/08/27 01:21:39;;;;;;;;;;;14.20;70.60;;;;;;4143178;28;20791;-85
2023/08/27 01:24:00;;;;;;;;;;;14.20;70.40;;;;;;4149881;28;19922;-85
2023/08/27 01:26:30;;;;;;;;;;;14.20;70.50;;;;;;4120648;28;19922;-85
2023/08/27 01:28:54;;;;;;;;;;;14.10;70.50;;;;;;4123065;28;20001;-84
2023/08/27 01:31:17;;;;;;;;;;;14.10;70.40;;;;;;4118778;28;20115;-85
2023/08/27 01:33:23;;;;;;;;;;;14.10;70.50;;;;;;4138103;28;19932;-84
2023/08/27 01:35:24;;;;;;;;;;;14.10;70.30;;;;;;4124194;28;19922;-84
2023/08/27 01:37:24;;;;;;;;;;;14.10;70.20;;;;;;4121947;28;20144;-84
2023/08/27 01:39:25;;;;;;;;;;;14.10;70.50;;;;;;4136215;28;20461;-84
2023/08/27 01:41:25;;;;;;;;;;;14.10;70.50;;;;;;4121632;28;19918;-84
2023/08/27 01:43:28;;;;;;;;;;;14.10;70.70;;;;;;4135414;28;20383;-84
2023/08/27 01:45:29;;;;;;;;;;;14.00;70.60;;;;;;4124430;28;19921;-84
2023/08/27 01:47:30;;;;;;;;;;;14.10;71.10;;;;;;4121135;28;20168;-84
2023/08/27 01:49:30;;;;;;;;;;;14.00;71.50;;;;;;4135207;28;19964;-83
2023/08/27 01:51:31;;;;;;;;;;;14.00;71.40;;;;;;4123496;28;19926;-84
2023/08/27 01:53:32;;;;;;;;;;;13.90;71.30;;;;;;4122232;28;19924;-84
2023/08/27 01:55:37;;;;;;;;;;;14.00;71.30;;;;;;4120931;28;19918;-84
2023/08/27 01:57:37;;;;;;;;;;;14.00;71.20;;;;;;4120877;28;19922;-84
2023/08/27 01:59:58;;;;;;;;;;;14.00;71.10;;;;;;4133624;28;19969;-83
2023/08/27 02:01:58;;;;;;;;;;;14.10;71.40;;;;;;4122463;28;19913;-83
2023/08/27 02:04:19;;;;;;;;;;;13.90;71.70;;;;;;4120558;28;19920;-83
2023/08/27 02:06:39;;;;;;;;;;;14.00;71.40;;;;;;4120798;28;19922;-84
2023/08/27 02:09:00;;;;;;;;;;;14.00;71.30;;;;;;4121813;28;19919;-84
2023/08/27 02:11:20;;;;;;;;;;;14.00;71.20;;;;;;4121353;28;19937;-84
2023/08/27 02:13:41;;;;;;;;;;;14.00;71.20;;;;;;4121978;28;19918;-86
2023/08/27 02:16:02;;;;;;;;;;;14.00;72.00;;;;;;4122540;28;19914;-84
2023/08/27 02:18:22;;;;;;;;;;;14.00;71.70;;;;;;4134588;28;19924;-85
2023/08/27 02:20:44;;;;;;;;;;;13.90;71.70;;;;;;4129846;28;20650;-84
2023/08/27 02:23:04;;;;;;;;;;;13.90;71.60;;;;;;4132178;28;19926;-84
2023/08/27 02:25:06;;;;;;;;;;;13.90;71.70;;;;;;4119675;28;19976;-83
2023/08/27 02:27:06;;;;;;;;;;;13.90;71.80;;;;;;4118262;28;19976;-84
2023/08/27 02:29:07;;;;;;;;;;;13.90;71.60;;;;;;4123703;28;20000;-85
2023/08/27 02:31:08;;;;;;;;;;;13.90;71.60;;;;;;4134944;28;20697;-84
2023/08/27 02:33:12;;;;;;;;;;;14.00;71.60;;;;;;4125189;28;19918;-84
2023/08/27 02:35:12;;;;;;;;;;;14.00;71.60;;;;;;4132822;28;19922;-85
2023/08/27 02:37:13;;;;;;;;;;;13.90;71.60;;;;;;4120669;28;20013;-84
2023/08/27 02:39:13;;;;;;;;;;;14.00;72.10;;;;;;4119532;28;20012;-82
2023/08/27 02:41:14;;;;;;;;;;;13.90;71.70;;;;;;4119835;28;19957;-85
2023/08/27 02:43:15;;;;;;;;;;;13.80;71.70;;;;;;4122191;28;20391;-85
2023/08/27 02:45:19;;;;;;;;;;;13.90;71.80;;;;;;4107429;28;19976;-84
2023/08/27 02:47:20;;;;;;;;;;;13.90;71.70;;;;;;4125860;28;19920;-83
2023/08/27 02:49:20;;;;;;;;;;;13.90;71.70;;;;;;4123104;28;19995;-84
2023/08/27 02:51:25;;;;;;;;;;;13.80;71.60;;;;;;4122521;28;19925;-84
2023/08/27 02:53:26;;;;;;;;;;;13.90;71.80;;;;;;4124207;28;19922;-84
2023/08/27 02:55:48;;;;;;;;;;;13.80;71.80;;;;;;4123680;28;19941;-84
2023/08/27 02:58:08;;;;;;;;;;;13.80;71.70;;;;;;4119672;28;19921;-84
2023/08/27 03:00:29;;;;;;;;;;;13.80;71.80;;;;;;4124383;28;19918;-84
2023/08/27 03:02:49;;;;;;;;;;;13.80;71.90;;;;;;4125128;28;19972;-84
2023/08/27 03:05:10;;;;;;;;;;;13.80;71.70;;;;;;4122354;28;19929;-84
2023/08/27 03:07:30;;;;;;;;;;;13.80;71.70;;;;;;4124082;28;19932;-83
2023/08/27 03:09:51;;;;;;;;;;;13.70;71.70;;;;;;4123236;28;20016;-84
2023/08/27 03:12:11;;;;;;;;;;;13.70;71.80;;;;;;4120108;28;20004;-83
2023/08/27 03:14:32;;;;;;;;;;;13.70;72.00;;;;;;4133707;28;20032;-83
2023/08/27 03:16:52;;;;;;;;;;;13.60;71.80;;;;;;4134721;28;20008;-84
2023/08/27 03:19:13;;;;;;;;;;;13.60;71.80;;;;;;4122101;28;19964;-84
2023/08/27 03:21:33;;;;;;;;;;;13.70;71.80;;;;;;4135317;28;19921;-84
2023/08/27 03:23:54;;;;;;;;;;;13.60;71.80;;;;;;4134552;28;19972;-84
2023/08/27 03:26:14;;;;;;;;;;;13.70;71.90;;;;;;4125418;28;19926;-83
2023/08/27 03:28:15;;;;;;;;;;;13.70;72.00;;;;;;4126332;28;19914;-83
2023/08/27 03:30:15;;;;;;;;;;;13.70;72.10;;;;;;4136064;28;20044;-83
2023/08/27 03:32:16;;;;;;;;;;;13.60;72.10;;;;;;4111312;28;19920;-84
2023/08/27 03:34:17;;;;;;;;;;;13.60;72.20;;;;;;4123256;28;19914;-84
2023/08/27 03:36:36;;;;;;;;;;;13.60;72.20;;;;;;4124429;28;19925;-83
2023/08/27 03:38:37;;;;;;;;;;;13.50;72.10;;;;;;4123771;28;19918;-84
2023/08/27 03:40:57;;;;;;;;;;;13.50;72.00;;;;;;4118555;28;19914;-84
2023/08/27 03:43:18;;;;;;;;;;;13.50;72.00;;;;;;4118966;28;19922;-83
2023/08/27 03:45:39;;;;;;;;;;;13.50;72.00;;;;;;4124195;28;19922;-84
2023/08/27 03:47:59;;;;;;;;;;;13.40;72.00;;;;;;4124408;28;19932;-84
2023/08/27 03:50:20;;;;;;;;;;;13.40;72.00;;;;;;4126153;28;20015;-84
2023/08/27 03:52:40;;;;;;;;;;;13.50;71.90;;;;;;4132827;28;19969;-84
2023/08/27 03:55:01;;;;;;;;;;;13.40;71.90;;;;;;4124915;28;19941;-84
2023/08/27 03:57:22;;;;;;;;;;;13.40;71.80;;;;;;4132571;28;19953;-83
2023/08/27 03:59:22;;;;;;;;;;;13.40;71.80;;;;;;4122575;28;19914;-83
2023/08/27 04:01:43;;;;;;;;;;;13.40;71.60;;;;;;4123746;28;19918;-83
2023/08/27 04:04:03;;;;;;;;;;;13.30;71.70;;;;;;4125927;28;19977;-85
2023/08/27 04:06:24;;;;;;;;;;;13.40;71.90;;;;;;4121883;28;19961;-83
2023/08/27 04:08:45;;;;;;;;;;;13.30;72.00;;;;;;4119034;28;20159;-83
2023/08/27 04:11:09;;;;;;;;;;;13.40;72.10;;;;;;4120393;28;19941;-83
2023/08/27 04:13:30;;;;;;;;;;;13.30;72.10;;;;;;4119819;28;19980;-83
2023/08/27 04:15:58;;;;;;;;;;;13.30;72.10;;;;;;4119363;28;19918;-84
2023/08/27 04:17:59;;;;;;;;;;;13.30;72.20;;;;;;4122755;28;19937;-84
2023/08/27 04:20:20;;;;;;;;;;;13.40;72.20;;;;;;4131439;28;19921;-84
2023/08/27 04:22:40;;;;;;;;;;;13.30;72.10;;;;;;4120372;28;19940;-84
2023/08/27 04:25:01;;;;;;;;;;;13.30;72.20;;;;;;4121074;28;19969;-83
2023/08/27 04:27:21;;;;;;;;;;;13.30;72.60;;;;;;4121145;28;19967;-83
2023/08/27 04:29:42;;;;;;;;;;;13.30;73.70;;;;;;4134744;28;20031;-84
2023/08/27 04:31:43;;;;;;;;;;;13.20;72.40;;;;;;4125971;28;19921;-84
2023/08/27 04:33:43;;;;;;;;;;;13.20;73.00;;;;;;4123640;28;20403;-84
2023/08/27 04:35:48;;;;;;;;;;;13.30;72.90;;;;;;4121799;28;19924;-84
2023/08/27 04:37:48;;;;;;;;;;;13.30;72.60;;;;;;4125948;28;19948;-84
2023/08/27 04:39:49;;;;;;;;;;;13.20;72.50;;;;;;4135163;28;19957;-84
2023/08/27 04:41:49;;;;;;;;;;;13.30;72.70;;;;;;4137557;28;19918;-85
2023/08/27 04:43:50;;;;;;;;;;;13.10;73.70;;;;;;4138303;28;20008;-84
2023/08/27 04:45:51;;;;;;;;;;;13.20;73.80;;;;;;4124388;28;19924;-84
2023/08/27 04:47:51;;;;;;;;;;;13.20;73.50;;;;;;4124355;28;19917;-83
2023/08/27 04:49:52;;;;;;;;;;;13.20;73.50;;;;;;4136851;28;19914;-83
2023/08/27 04:51:52;;;;;;;;;;;13.20;73.40;;;;;;4122661;28;19918;-83
2023/08/27 04:53:53;;;;;;;;;;;13.20;73.40;;;;;;4123301;28;19921;-85
2023/08/27 04:55:53;;;;;;;;;;;13.20;73.30;;;;;;4122316;28;19940;-84
2023/08/27 04:57:54;;;;;;;;;;;13.20;73.40;;;;;;4139464;28;19922;-84
2023/08/27 04:59:55;;;;;;;;;;;13.20;73.40;;;;;;4124951;28;19918;-84
2023/08/27 05:01:59;;;;;;;;;;;13.20;73.30;;;;;;4123871;28;19918;-83
2023/08/27 05:03:59;;;;;;;;;;;13.20;73.30;;;;;;4122366;28;20299;-84
2023/08/27 05:06:00;;;;;;;;;;;13.30;73.30;;;;;;4124363;28;19918;-84
2023/08/27 05:08:00;;;;;;;;;;;13.30;73.20;;;;;;4135648;28;20016;-83
2023/08/27 05:10:01;;;;;;;;;;;13.30;73.20;;;;;;4124496;28;19929;-84
2023/08/27 05:12:02;;;;;;;;;;;13.20;73.20;;;;;;4121493;28;19938;-83
2023/08/27 05:14:03;;;;;;;;;;;13.20;73.10;;;;;;4139596;28;19941;-85
2023/08/27 05:16:03;;;;;;;;;;;13.30;73.40;;;;;;4145855;28;19945;-85
2023/08/27 05:18:04;;;;;;;;;;;13.20;74.00;;;;;;4137048;28;19918;-84
2023/08/27 05:20:07;;;;;;;;;;;13.30;73.90;;;;;;4124998;28;19924;-84
2023/08/27 05:22:07;;;;;;;;;;;13.30;73.90;;;;;;4107140;28;19922;-83
2023/08/27 05:24:08;;;;;;;;;;;13.30;74.00;;;;;;4122284;28;20039;-84
2023/08/27 05:26:08;;;;;;;;;;;13.30;74.70;;;;;;4138605;28;19922;-84
2023/08/27 05:28:09;;;;;;;;;;;13.50;74.30;;;;;;4124479;28;19918;-84
2023/08/27 05:30:14;;;;;;;;;;;13.40;74.20;;;;;;4106776;28;19925;-84
2023/08/27 05:32:14;;;;;;;;;;;13.40;74.20;;;;;;4129520;28;19918;-84
2023/08/27 05:34:15;;;;;;;;;;;13.50;74.70;;;;;;4125165;28;19924;-83
2023/08/27 05:36:16;;;;;;;;;;;13.50;74.80;;;;;;4124235;28;20314;-84
2023/08/27 05:38:16;;;;;;;;;;;13.60;74.90;;;;;;4127469;28;19988;-84
2023/08/27 05:40:17;;;;;;;;;;;13.60;74.90;;;;;;4123448;28;19914;-84
2023/08/27 05:42:17;;;;;;;;;;;13.70;75.10;;;;;;4124869;28;19917;-85
2023/08/27 05:44:18;;;;;;;;;;;13.80;75.20;;;;;;4124468;28;20000;-84
2023/08/27 05:46:18;;;;;;;;;;;13.90;75.20;;;;;;4124976;28;19918;-84
2023/08/27 05:48:19;;;;;;;;;;;13.90;75.20;;;;;;4119612;28;20347;-84
2023/08/27 05:50:20;;;;;;;;;;;13.90;75.20;;;;;;4116794;28;19918;-83
2023/08/27 05:52:20;;;;;;;;;;;14.10;75.40;;;;;;4124145;28;20286;-84
2023/08/27 05:54:21;;;;;;;;;;;14.20;75.40;;;;;;4123745;28;19917;-84
2023/08/27 05:56:22;;;;;;;;;;;14.20;75.30;;;;;;4123099;28;19918;-86
2023/08/27 05:58:23;;;;;;;;;;;14.30;75.40;;;;;;4121936;28;19918;-84
2023/08/27 06:00:23;;;;;;;;;;;14.30;75.30;;;;;;4122549;28;19969;-84
2023/08/27 06:02:24;;;;;;;;;;;14.50;75.40;;;;;;4126172;28;20009;-84
2023/08/27 06:04:25;;;;;;;;;;;14.50;75.40;;;;;;4123416;28;20038;-84
2023/08/27 06:06:25;;;;;;;;;;;14.60;75.50;;;;;;4106404;28;19922;-84
2023/08/27 06:08:27;;;;;;;;;;;14.60;75.40;;;;;;4107895;28;19925;-85
2023/08/27 06:10:29;;;;;;;;;;;14.70;75.20;;;;;;4105715;28;19922;-84
2023/08/27 06:12:30;;;;;;;;;;;14.80;75.20;;;;;;4139520;28;20402;-84
2023/08/27 06:14:31;;;;;;;;;;;14.90;75.50;;;;;;4143024;28;19922;-84
2023/08/27 06:16:31;;;;;;;;;;;14.90;75.70;;;;;;4145240;28;19917;-83
2023/08/27 06:18:32;;;;;;;;;;;15.00;76.00;;;;;;4130881;28;20557;-85
2023/08/27 06:20:33;;;;;;;;;;;15.00;76.00;;;;;;4117412;28;19917;-84
2023/08/27 06:22:34;;;;;;;;;;;15.10;76.90;;;;;;4131081;28;19918;-84
2023/08/27 06:24:34;;;;;;;;;;;15.10;77.00;;;;;;4132074;28;19921;-84
2023/08/27 06:26:35;;;;;;;;;;;15.30;76.90;;;;;;4116696;28;20026;-84
2023/08/27 06:28:36;;;;;;;;;;;15.30;77.10;;;;;;4135196;28;19920;-84
2023/08/27 06:30:40;;;;;;;;;;;15.40;76.90;;;;;;4118708;28;19930;-84
2023/08/27 06:32:41;;;;;;;;;;;15.40;76.70;;;;;;4118626;28;20583;-85
2023/08/27 06:34:42;;;;;;;;;;;15.50;76.80;;;;;;4118866;28;19922;-83
2023/08/27 06:36:42;;;;;;;;;;;15.60;76.70;;;;;;4097152;28;20403;-84
2023/08/27 06:38:43;;;;;;;;;;;15.60;76.50;;;;;;4122149;28;19917;-85
2023/08/27 06:41:04;;;;;;;;;;;15.80;76.50;;;;;;4120855;28;19988;-84
2023/08/27 06:43:04;;;;;;;;;;;15.80;76.40;;;;;;4134034;28;20399;-84
2023/08/27 06:45:07;;;;;;;;;;;15.90;76.30;;;;;;4100347;28;20291;-84
2023/08/27 06:47:28;;;;;;;;;;;16.00;76.70;;;;;;4116319;28;19922;-84
2023/08/27 06:49:49;;;;;;;;;;;16.10;76.40;;;;;;4122533;28;19933;-84
2023/08/27 06:52:10;;;;;;;;;;;16.10;76.30;;;;;;4128941;28;20515;-84
2023/08/27 06:54:30;;;;;;;;;;;16.20;76.30;;;;;;4119824;28;19921;-85
2023/08/27 06:56:51;;;;;;;;;;;16.30;76.20;;;;;;4122604;28;20272;-84
2023/08/27 06:59:12;;;;;;;;;;;16.40;76.00;;;;;;4120291;28;19921;-84
2023/08/27 07:01:32;;;;;;;;;;;16.50;75.90;;;;;;4118952;28;19921;-85
2023/08/27 07:03:34;;;;;;;;;;;16.60;75.80;;;;;;4121290;28;19950;-84
2023/08/27 07:05:55;;;;;;;;;;;16.60;75.80;;;;;;4118806;28;20276;-84
2023/08/27 07:08:15;;;;;;;;;;;16.70;75.70;;;;;;4115816;28;19921;-85
2023/08/27 07:10:36;;;;;;;;;;;16.80;75.90;;;;;;4117203;28;19914;-85
2023/08/27 07:12:57;;;;;;;;;;;16.90;75.80;;;;;;4117332;28;19978;-85
2023/08/27 07:15:17;;;;;;;;;;;17.00;75.70;;;;;;4119101;28;19949;-85
2023/08/27 07:17:39;;;;;;;;;;;17.10;75.70;;;;;;4128365;28;19973;-86
2023/08/27 07:20:00;;;;;;;;;;;17.20;75.60;;;;;;4113086;28;19922;-86
2023/08/27 07:22:21;;;;;;;;;;;17.30;75.80;;;;;;4129304;28;19921;-85
2023/08/27 07:24:42;;;;;;;;;;;17.40;75.60;;;;;;4130676;28;19917;-85
2023/08/27 07:27:03;;;;;;;;;;;17.50;75.80;;;;;;4116905;28;20303;-86
2023/08/27 07:29:24;;;;;;;;;;;17.60;76.00;;;;;;4115370;28;19917;-85
2023/08/27 07:31:45;;;;;;;;;;;17.70;75.60;;;;;;4117526;28;19913;-86
2023/08/27 07:34:05;;;;;;;;;;;17.80;75.30;;;;;;4112028;28;19918;-86
2023/08/27 07:36:26;;;;;;;;;;;17.90;76.00;;;;;;4114907;28;19945;-86
2023/08/27 07:38:47;;;;;;;;;;;18.00;75.20;;;;;;4134511;28;20352;-87
2023/08/27 07:41:07;;;;;;;;;;;18.00;75.60;;;;;;4117938;28;20431;-87
2023/08/27 07:43:28;;;;;;;;;;;18.10;74.90;;;;;;4120451;28;20315;-88
2023/08/27 07:45:48;;;;;;;;;;;18.20;74.60;;;;;;4117715;28;19929;-87
2023/08/27 07:48:09;;;;;;;;;;;18.30;74.50;;;;;;4112166;28;19945;-87
2023/08/27 07:50:30;;;;;;;;;;;18.40;73.80;;;;;;4114544;28;19936;-86
2023/08/27 07:52:50;;;;;;;;;;;18.50;73.50;;;;;;4120345;28;19913;-87
2023/08/27 07:55:11;;;;;;;;;;;18.50;73.40;;;;;;4118089;28;19924;-87
2023/08/27 07:57:31;;;;;;;;;;;18.60;73.20;;;;;;4118836;28;19928;-86
2023/08/27 07:59:54;;;;;;;;;;;18.60;73.00;;;;;;4112010;28;19918;-87
2023/08/27 08:02:14;;;;;;;;;;;18.70;72.60;;;;;;4128907;28;19961;-87
2023/08/27 08:04:35;;;;;;;;;;;18.80;71.90;;;;;;4139886;28;20173;-86
2023/08/27 08:06:55;;;;;;;;;;;18.80;71.50;;;;;;4127538;28;19937;-87
2023/08/27 08:09:16;;;;;;;;;;;18.90;70.30;;;;;;4117168;28;20390;-87
2023/08/27 08:11:36;;;;;;;;;;;18.90;70.30;;;;;;4123110;28;19918;-88
2023/08/27 08:13:57;;;;;;;;;;;19.10;70.50;;;;;;4120735;28;20004;-86
2023/08/27 08:16:17;;;;;;;;;;;19.10;70.00;;;;;;4117584;28;19918;-88
2023/08/27 08:18:26;;;;;;;;;;;19.20;70.10;;;;;;4138028;28;19921;-86
2023/08/27 08:20:47;;;;;;;;;;;19.30;70.10;;;;;;4115694;28;19918;-87
2023/08/27 08:23:08;;;;;;;;;;;19.30;69.30;;;;;;4118861;28;19945;-87
2023/08/27 08:25:15;;;;;;;;;;;19.40;69.60;;;;;;4109877;28;20379;-86
2023/08/27 08:27:35;;;;;;;;;;;19.50;69.70;;;;;;4116704;28;19957;-87
2023/08/27 08:29:56;;;;;;;;;;;19.60;68.90;;;;;;4119115;28;19945;-86
2023/08/27 08:32:16;;;;;;;;;;;19.60;68.90;;;;;;4120317;28;19968;-86
2023/08/27 08:34:39;;;;;;;;;;;19.70;68.50;;;;;;4119478;28;20044;-83
2023/08/27 08:37:01;;;;;;;;;;;19.80;69.00;;;;;;4133768;28;19925;-85
2023/08/27 08:39:24;;;;;;;;;;;19.80;66.50;;;;;;4120836;28;19999;-83
2023/08/27 08:41:50;;;;;;;;;;;19.90;66.90;;;;;;4111138;28;19922;-86
2023/08/27 08:44:20;;;;;;;;;;;20.00;66.90;;;;;;4117277;28;20009;-87
2023/08/27 08:46:41;;;;;;;;;;;20.10;67.30;;;;;;4119941;28;19998;-86
2023/08/27 08:49:02;;;;;;;;;;;20.20;65.30;;;;;;4126031;28;19957;-87
2023/08/27 08:51:25;;;;;;;;;;;20.20;66.30;;;;;;4124482;28;19976;-87
2023/08/27 08:53:49;;;;;;;;;;;20.20;66.50;;;;;;4121965;28;20004;-87
2023/08/27 08:56:22;;;;;;;;;;;20.30;66.90;;;;;;4111036;28;19993;-87
2023/08/27 08:58:45;;;;;;;;;;;20.40;66.60;;;;;;4116713;28;19922;-85
2023/08/27 09:01:06;;;;;;;;;;;20.40;66.20;;;;;;4120511;28;19918;-85
2023/08/27 09:03:30;;;;;;;;;;;20.50;66.20;;;;;;4115186;28;19929;-86
2023/08/27 09:05:50;;;;;;;;;;;20.60;64.90;;;;;;4122699;28;19918;-84
2023/08/27 09:08:12;;;;;;;;;;;20.60;62.10;;;;;;4121950;28;19933;-86
2023/08/27 09:10:33;;;;;;;;;;;20.70;63.90;;;;;;4120925;28;19918;-84
2023/08/27 09:12:57;;;;;;;;;;;20.80;64.70;;;;;;4129237;28;19924;-85
2023/08/27 09:15:18;;;;;;;;;;;20.90;64.00;;;;;;4117923;28;19918;-85
2023/08/27 09:17:38;;;;;;;;;;;20.90;63.10;;;;;;4119568;28;19983;-86
2023/08/27 09:19:59;;;;;;;;;;;20.90;63.30;;;;;;4119428;28;19933;-87
2023/08/27 09:22:19;;;;;;;;;;;20.90;61.80;;;;;;4116870;28;19928;-86
2023/08/27 09:24:40;;;;;;;;;;;21.00;60.90;;;;;;4119006;28;20291;-86
2023/08/27 09:27:00;;;;;;;;;;;21.00;61.20;;;;;;4119883;28;19924;-86
2023/08/27 09:29:21;;;;;;;;;;;21.00;61.30;;;;;;4122150;28;20149;-86
2023/08/27 09:31:42;;;;;;;;;;;21.10;61.90;;;;;;4119497;28;19929;-86
2023/08/27 09:34:01;;;;;;;;;;;21.10;61.40;;;;;;4119262;28;20429;-87
2023/08/27 09:36:25;;;;;;;;;;;21.20;62.50;;;;;;4123213;28;19964;-87
2023/08/27 09:38:44;;;;;;;;;;;21.20;63.00;;;;;;4119631;28;20403;-85
2023/08/27 09:41:16;;;;;;;;;;;21.20;62.90;;;;;;4119306;28;19924;-85
2023/08/27 09:43:35;;;;;;;;;;;21.30;61.30;;;;;;4118499;28;19976;-84
2023/08/27 09:45:54;;;;;;;;;;;21.30;63.00;;;;;;4119938;28;20016;-85
2023/08/27 09:48:21;;;;;;;;;;;21.40;63.10;;;;;;4117961;28;20020;-85
2023/08/27 09:50:40;;;;;;;;;;;21.50;63.80;;;;;;4122689;28;20023;-86
2023/08/27 09:53:27;;;;;;;;;;;21.50;61.90;;;;;;4121725;28;19929;-85
2023/08/27 09:55:50;;;;;;;;;;;21.60;62.50;;;;;;4113385;28;20049;-86
2023/08/27 09:58:10;;;;;;;;;;;21.60;62.10;;;;;;4118898;28;19949;-86
2023/08/27 10:00:30;;;;;;;;;;;21.70;61.20;;;;;;4118684;28;19988;-84
2023/08/27 10:02:52;;;;;;;;;;;21.80;61.80;;;;;;4119499;28;20013;-84
2023/08/27 10:05:11;;;;;;;;;;;21.80;62.20;;;;;;4121603;28;19972;-85
2023/08/27 10:07:31;;;;;;;;;;;21.90;61.70;;;;;;4124948;28;19959;-84
2023/08/27 10:09:51;;;;;;;;;;;21.90;61.90;;;;;;4116230;28;19988;-85
2023/08/27 10:12:11;;;;;;;;;;;21.90;62.60;;;;;;4122260;28;20000;-85
2023/08/27 10:14:31;;;;;;;;;;;22.00;61.70;;;;;;4119513;28;20003;-84
2023/08/27 10:16:50;;;;;;;;;;;22.00;61.70;;;;;;4119930;28;20015;-83
2023/08/27 10:19:10;;;;;;;;;;;22.10;61.70;;;;;;4117213;28;19921;-84
2023/08/27 10:21:30;;;;;;;;;;;22.10;61.10;;;;;;4121501;28;20028;-85
2023/08/27 10:23:49;;;;;;;;;;;22.10;59.90;;;;;;4123067;28;19968;-84
2023/08/27 10:26:08;;;;;;;;;;;22.10;60.50;;;;;;4120522;28;19929;-85
2023/08/27 10:28:28;;;;;;;;;;;22.20;60.90;;;;;;4116778;28;20013;-86
2023/08/27 10:30:49;;;;;;;;;;;22.20;60.00;;;;;;4115137;28;19928;-85
2023/08/27 10:33:08;;;;;;;;;;;22.30;59.00;;;;;;4120418;28;19967;-85
2023/08/27 10:35:54;;;;;;;;;;;22.30;58.60;;;;;;4117383;28;19964;-84
2023/08/27 10:38:15;;;;;;;;;;;22.30;58.50;;;;;;4117423;28;19976;-85
2023/08/27 10:40:36;;;;;;;;;;;22.40;59.00;;;;;;4120609;28;19940;-85
2023/08/27 10:43:16;;;;;;;;;;;22.40;56.00;;;;;;4106793;28;19941;-85
2023/08/27 10:45:40;;;;;;;;;;;22.40;54.00;;;;;;4116842;28;19921;-86
2023/08/27 10:48:22;;;;;;;;;;;22.50;54.60;;;;;;4120214;28;19921;-85
2023/08/27 10:50:48;;;;;;;;;;;22.50;57.50;;;;;;4118083;28;19968;-86
2023/08/27 10:53:08;;;;;;;;;;;22.50;56.10;;;;;;4122114;28;20243;-86
2023/08/27 10:55:36;;;;;;;;;;;22.50;56.40;;;;;;4121532;28;19956;-85
2023/08/27 10:58:12;;;;;;;;;;;22.50;54.30;;;;;;4120944;28;19928;-85
2023/08/27 11:00:51;;;;;;;;;;;22.60;55.50;;;;;;4119521;28;19924;-87
2023/08/27 11:03:13;;;;;;;;;;;22.60;54.90;;;;;;4139078;28;19948;-88
2023/08/27 11:05:32;;;;;;;;;;;22.60;56.10;;;;;;4145703;28;19917;-85
2023/08/27 11:07:51;;;;;;;;;;;22.60;55.10;;;;;;4139114;28;20021;-86
2023/08/27 11:10:11;;;;;;;;;;;22.70;55.60;;;;;;4115464;28;19925;-85
2023/08/27 11:12:36;;;;;;;;;;;22.80;55.40;;;;;;4122236;28;19929;-85
2023/08/27 11:15:08;;;;;;;;;;;22.70;52.50;;;;;;4122217;28;19921;-86
2023/08/27 11:17:28;;;;;;;;;;;22.80;52.40;;;;;;4122882;28;19929;-86
2023/08/27 11:19:50;;;;;;;;;;;22.80;53.80;;;;;;4119170;28;19925;-86
2023/08/27 11:22:10;;;;;;;;;;;22.80;54.60;;;;;;4132931;28;19948;-86
2023/08/27 11:24:30;;;;;;;;;;;22.70;55.00;;;;;;4143434;28;19952;-88
2023/08/27 11:26:49;;;;;;;;;;;22.80;55.40;;;;;;4134778;28;19941;-87
2023/08/27 11:29:09;;;;;;;;;;;22.80;55.60;;;;;;4122813;28;19925;-85
2023/08/27 11:31:29;;;;;;;;;;;22.80;55.70;;;;;;4125094;28;20363;-86
2023/08/27 11:33:48;;;;;;;;;;;22.80;55.20;;;;;;4131599;28;19925;-88
2023/08/27 11:36:08;;;;;;;;;;;22.80;53.80;;;;;;4122021;28;20391;-87
2023/08/27 11:38:27;;;;;;;;;;;22.90;52.20;;;;;;4120964;28;19945;-88
2023/08/27 11:40:47;;;;;;;;;;;22.80;53.60;;;;;;4119032;28;20072;-88
2023/08/27 11:43:06;;;;;;;;;;;22.90;54.70;;;;;;4126980;28;19924;-87
2023/08/27 11:45:30;;;;;;;;;;;22.90;55.20;;;;;;4119152;28;19957;-88
2023/08/27 11:47:49;;;;;;;;;;;23.00;56.00;;;;;;4132078;28;19925;-88
2023/08/27 11:50:13;;;;;;;;;;;22.90;55.80;;;;;;4113882;28;19924;-88
2023/08/27 11:52:34;;;;;;;;;;;23.00;55.20;;;;;;4114050;28;21218;-86
2023/08/27 11:54:56;;;;;;;;;;;23.00;54.60;;;;;;4125105;28;19921;-88
2023/08/27 11:57:15;;;;;;;;;;;23.00;54.30;;;;;;4122253;28;19940;-88
2023/08/27 11:59:38;;;;;;;;;;;23.00;53.00;;;;;;4133916;28;20047;-87
2023/08/27 12:01:58;;;;;;;;;;;23.00;53.70;;;;;;4124580;28;20036;-89
2023/08/27 12:04:17;;;;;;;;;;;23.00;53.80;;;;;;4130359;28;19928;-89
2023/08/27 12:06:36;;;;;;;;;;;23.00;54.70;;;;;;4121453;28;19928;-88
2023/08/27 12:08:56;;;;;;;;;;;22.90;54.60;;;;;;4119653;28;19925;-88
2023/08/27 12:11:16;;;;;;;;;;;22.90;53.30;;;;;;4119677;28;19921;-88
2023/08/27 12:13:35;;;;;;;;;;;22.80;54.70;;;;;;4120735;28;19925;-87
2023/08/27 12:15:54;;;;;;;;;;;22.80;54.90;;;;;;4122344;28;19941;-88
2023/08/27 12:18:13;;;;;;;;;;;22.70;54.40;;;;;;4123251;28;19967;-88
2023/08/27 12:20:33;;;;;;;;;;;22.60;54.00;;;;;;4120408;28;19941;-88
2023/08/27 12:22:52;;;;;;;;;;;22.60;54.10;;;;;;4123191;28;19921;-87
2023/08/27 12:25:12;;;;;;;;;;;22.50;54.40;;;;;;4120018;28;21932;-89
2023/08/27 12:27:31;;;;;;;;;;;22.50;54.80;;;;;;4134032;28;20439;-88
2023/08/27 12:29:51;;;;;;;;;;;22.30;54.50;;;;;;4114884;28;20057;-87
2023/08/27 12:32:14;;;;;;;;;;;22.30;54.70;;;;;;4115429;28;19924;-89
2023/08/27 12:34:37;;;;;;;;;;;22.20;55.00;;;;;;4113747;28;19932;-87
2023/08/27 12:36:55;;;;;;;;;;;22.10;55.20;;;;;;4117912;28;20368;-88
2023/08/27 12:39:15;;;;;;;;;;;22.00;55.30;;;;;;4114116;28;19949;-88
2023/08/27 12:41:34;;;;;;;;;;;21.90;55.50;;;;;;4114951;28;19925;-90
2023/08/27 12:43:55;;;;;;;;;;;21.80;56.30;;;;;;4116107;28;19972;-89
2023/08/27 12:46:14;;;;;;;;;;;21.70;55.50;;;;;;4116261;28;19920;-87
2023/08/27 12:48:34;;;;;;;;;;;21.50;55.20;;;;;;4119800;28;19934;-89
2023/08/27 12:50:54;;;;;;;;;;;21.30;54.40;;;;;;4116199;28;20262;-89
2023/08/27 12:53:13;;;;;;;;;;;21.10;54.20;;;;;;4113519;28;20294;-88
2023/08/27 12:55:32;;;;;;;;;;;20.90;53.70;;;;;;4118652;28;19976;-88
2023/08/27 12:57:51;;;;;;;;;;;20.70;53.70;;;;;;4119368;28;19929;-87
2023/08/27 13:00:14;;;;;;;;;;;20.50;54.00;;;;;;4119648;28;20521;-89
2023/08/27 13:02:33;;;;;;;;;;;20.30;54.70;;;;;;4119157;28;19924;-87